Time;durP1;ratioP1;P1;durP2;ratioP2;P2;SDS_P1;SDS_P2;PMS_P1;PMS_P2;Temp;Humidity;BMP_temperature;BMP_pressure;BME280_temperature;BME280_humidity;BME280_pressure;Samples;Min_cycle;Max_cycle;Signal;HPM_P1;HPM_P2
2024/03/28 00:01:44;;;;;;;0.17;0.15;;;;;;;;;;5014112;28;20515;-83
2024/03/28 00:04:10;;;;;;;0.10;0.10;;;;;;;;;;5014305;28;20076;-84
2024/03/28 00:06:36;;;;;;;0.10;0.10;;;;;;;;;;5030880;28;20117;-86
2024/03/28 00:09:02;;;;;;;0.20;0.20;;;;;;;;;;5030537;28;20049;-85
2024/03/28 00:11:28;;;;;;;0.80;0.20;;;;;;;;;;5030763;28;20049;-85
2024/03/28 00:13:54;;;;;;;0.10;0.10;;;;;;;;;;5030501;28;20033;-85
2024/03/28 00:16:20;;;;;;;0.10;0.10;;;;;;;;;;5013918;28;20083;-85
2024/03/28 00:18:46;;;;;;;0.15;0.15;;;;;;;;;;5014134;28;20045;-85
2024/03/28 00:21:12;;;;;;;0.10;0.10;;;;;;;;;;5014238;28;20099;-85
2024/03/28 00:23:38;;;;;;;0.20;0.20;;;;;;;;;;5030738;28;20057;-85
2024/03/28 00:26:04;;;;;;;0.10;0.10;;;;;;;;;;5030276;28;20084;-85
2024/03/28 00:28:30;;;;;;;0.10;0.10;;;;;;;;;;5014135;28;20132;-84
2024/03/28 00:30:56;;;;;;;0.10;0.10;;;;;;;;;;5013988;28;20133;-83
2024/03/28 00:33:22;;;;;;;0.10;0.10;;;;;;;;;;5014087;28;20041;-84
2024/03/28 00:35:48;;;;;;;0.10;0.10;;;;;;;;;;5014020;28;20045;-85
2024/03/28 00:38:15;;;;;;;0.10;0.10;;;;;;;;;;5014048;28;20048;-84
2024/03/28 00:40:47;;;;;;;0.10;0.10;;;;;;;;;;5014033;28;20045;-85
2024/03/28 00:43:13;;;;;;;;;;;;;;;;;;5030762;28;20056;-84
2024/03/28 00:45:39;;;;;;;0.10;0.10;;;;;;;;;;5030311;28;19925;-84
2024/03/28 00:48:05;;;;;;;0.10;0.10;;;;;;;;;;5016972;28;20054;-84
2024/03/28 00:50:32;;;;;;;0.10;0.10;;;;;;;;;;5033756;28;20404;-84
2024/03/28 00:52:58;;;;;;;0.10;0.10;;;;;;;;;;5017508;28;20037;-83
2024/03/28 00:55:24;;;;;;;0.10;0.10;;;;;;;;;;5017636;28;20037;-85
2024/03/28 00:57:50;;;;;;;0.20;0.20;;;;;;;;;;5033850;28;20049;-85
2024/03/28 01:00:16;;;;;;;0.10;0.10;;;;;;;;;;5033709;28;20127;-85
2024/03/28 01:02:42;;;;;;;0.10;0.10;;;;;;;;;;5033803;28;20076;-84
2024/03/28 01:05:09;;;;;;;0.10;0.10;;;;;;;;;;5033624;28;20084;-84
2024/03/28 01:07:35;;;;;;;0.10;0.10;;;;;;;;;;5017172;28;20033;-84
2024/03/28 01:10:01;;;;;;;0.10;0.10;;;;;;;;;;5033418;28;20124;-85
2024/03/28 01:12:27;;;;;;;0.10;0.10;;;;;;;;;;5016964;28;20045;-85
2024/03/28 01:14:53;;;;;;;0.10;0.10;;;;;;;;;;5017148;28;20037;-84
2024/03/28 01:17:19;;;;;;;0.10;0.10;;;;;;;;;;5016935;28;20085;-85
2024/03/28 01:19:45;;;;;;;0.10;0.10;;;;;;;;;;5033449;28;20084;-84
2024/03/28 01:22:11;;;;;;;0.32;0.32;;;;;;;;;;5000570;28;20045;-84
2024/03/28 01:24:37;;;;;;;0.10;0.10;;;;;;;;;;5033211;28;20041;-91
2024/03/28 01:27:03;;;;;;;0.32;0.32;;;;;;;;;;5034087;28;20040;-85
2024/03/28 01:29:29;;;;;;;0.10;0.10;;;;;;;;;;5000439;28;20046;-85
2024/03/28 01:31:55;;;;;;;0.17;0.17;;;;;;;;;;5033323;28;20033;-84
2024/03/28 01:34:21;;;;;;;0.10;0.10;;;;;;;;;;5033162;28;20507;-84
2024/03/28 01:36:47;;;;;;;0.10;0.10;;;;;;;;;;5032958;28;20041;-84
2024/03/28 01:39:13;;;;;;;0.20;0.20;;;;;;;;;;5034408;28;20044;-84
2024/03/28 01:41:39;;;;;;;0.13;0.13;;;;;;;;;;5032742;28;20436;-85
2024/03/28 01:44:05;;;;;;;0.10;0.10;;;;;;;;;;5016318;28;20033;-84
2024/03/28 01:46:32;;;;;;;0.10;0.10;;;;;;;;;;5032766;28;20489;-85
2024/03/28 01:48:58;;;;;;;0.10;0.10;;;;;;;;;;5032703;28;20077;-84
2024/03/28 01:51:24;;;;;;;0.10;0.10;;;;;;;;;;4999916;28;20080;-84
2024/03/28 01:53:50;;;;;;;1.33;1.23;;;;;;;;;;5032662;28;20491;-84
2024/03/28 01:56:16;;;;;;;0.20;0.20;;;;;;;;;;5032666;28;20041;-85
2024/03/28 01:58:42;;;;;;;0.20;0.20;;;;;;;;;;5031598;28;20133;-84
2024/03/28 02:01:08;;;;;;;0.25;0.15;;;;;;;;;;5016344;28;20412;-85
2024/03/28 02:03:34;;;;;;;0.20;0.20;;;;;;;;;;5016074;28;20055;-84
2024/03/28 02:06:00;;;;;;;0.10;0.10;;;;;;;;;;4999744;28;20046;-85
2024/03/28 02:08:29;;;;;;;0.13;0.13;;;;;;;;;;5032664;28;20359;-85
2024/03/28 02:10:55;;;;;;;0.10;0.10;;;;;;;;;;5032069;28;20044;-84
2024/03/28 02:13:21;;;;;;;0.10;0.10;;;;;;;;;;5015897;28;20044;-85
2024/03/28 02:15:48;;;;;;;0.10;0.10;;;;;;;;;;5016231;28;20041;-85
2024/03/28 02:18:14;;;;;;;0.10;0.10;;;;;;;;;;5032210;28;20041;-85
2024/03/28 02:20:40;;;;;;;0.10;0.10;;;;;;;;;;5032083;28;20436;-84
2024/03/28 02:23:06;;;;;;;0.10;0.10;;;;;;;;;;5015583;28;20125;-85
2024/03/28 02:25:32;;;;;;;0.10;0.10;;;;;;;;;;5031862;28;20041;-84
2024/03/28 02:27:58;;;;;;;0.10;0.10;;;;;;;;;;5015579;28;20044;-84
2024/03/28 02:30:24;;;;;;;0.20;0.20;;;;;;;;;;5015528;28;20084;-85
2024/03/28 02:32:50;;;;;;;0.10;0.10;;;;;;;;;;5031873;28;20053;-84
2024/03/28 02:35:16;;;;;;;1.10;0.30;;;;;;;;;;5031990;28;20052;-84
2024/03/28 02:37:42;;;;;;;0.10;0.10;;;;;;;;;;5015277;28;20397;-84
2024/03/28 02:40:09;;;;;;;0.10;0.10;;;;;;;;;;5015104;28;20056;-84
2024/03/28 02:42:35;;;;;;;0.20;0.20;;;;;;;;;;4999328;28;20084;-84
2024/03/28 02:45:01;;;;;;;0.10;0.10;;;;;;;;;;5015154;28;20077;-84
2024/03/28 02:47:27;;;;;;;0.10;0.10;;;;;;;;;;5031730;28;20119;-84
2024/03/28 02:49:53;;;;;;;0.28;0.28;;;;;;;;;;5031748;28;20445;-85
2024/03/28 02:52:19;;;;;;;0.10;0.10;;;;;;;;;;5015285;28;20033;-85
2024/03/28 02:54:45;;;;;;;0.10;0.10;;;;;;;;;;4998919;28;20099;-85
2024/03/28 02:57:21;;;;;;;0.10;0.10;;;;;;;;;;4998648;28;20037;-85
2024/03/28 02:59:47;;;;;;;0.10;0.10;;;;;;;;;;5015305;28;20049;-85
2024/03/28 03:02:13;;;;;;;0.10;0.10;;;;;;;;;;5031297;28;20050;-86
2024/03/28 03:04:39;;;;;;;0.10;0.10;;;;;;;;;;5031511;28;20049;-84
2024/03/28 03:07:05;;;;;;;0.10;0.10;;;;;;;;;;5014665;28;20454;-85
2024/03/28 03:09:31;;;;;;;0.10;0.10;;;;;;;;;;5031297;28;20075;-85
2024/03/28 03:11:57;;;;;;;0.20;0.20;;;;;;;;;;4998286;28;20080;-85
2024/03/28 03:14:23;;;;;;;0.15;0.15;;;;;;;;;;5031575;28;20041;-84
2024/03/28 03:16:49;;;;;;;0.10;0.10;;;;;;;;;;5015730;28;20037;-85
2024/03/28 03:19:19;;;;;;;0.10;0.10;;;;;;;;;;5031670;28;20084;-85
2024/03/28 03:21:49;;;;;;;0.10;0.10;;;;;;;;;;5031448;28;20045;-84
2024/03/28 03:24:15;;;;;;;0.10;0.10;;;;;;;;;;5032007;28;20056;-85
2024/03/28 03:26:49;;;;;;;0.20;0.20;;;;;;;;;;4999036;28;20049;-85
2024/03/28 03:34:45;;;;;;;0.10;0.10;;;;;;;;;;5031259;28;20041;-84
2024/03/28 03:37:16;;;;;;;0.10;0.10;;;;;;;;;;5014488;28;20510;-84
2024/03/28 03:39:42;;;;;;;0.10;0.10;;;;;;;;;;5030851;28;20176;-84
2024/03/28 03:42:08;;;;;;;0.30;0.30;;;;;;;;;;4998098;28;20262;-84
2024/03/28 03:44:34;;;;;;;0.35;0.22;;;;;;;;;;4997941;28;20123;-83
2024/03/28 03:47:01;;;;;;;0.20;0.20;;;;;;;;;;5030482;28;20052;-84
2024/03/28 03:49:27;;;;;;;0.10;0.10;;;;;;;;;;5014495;28;20087;-84
2024/03/28 03:51:53;;;;;;;0.10;0.10;;;;;;;;;;5030684;28;20508;-83
2024/03/28 03:54:19;;;;;;;0.10;0.10;;;;;;;;;;5030851;28;20034;-84
2024/03/28 03:56:45;;;;;;;0.20;0.20;;;;;;;;;;5014407;28;20033;-83
2024/03/28 03:59:11;;;;;;;0.10;0.10;;;;;;;;;;5030538;28;20041;-85
2024/03/28 04:01:37;;;;;;;0.57;0.17;;;;;;;;;;5030580;28;20041;-85
2024/03/28 04:04:04;;;;;;;0.90;0.20;;;;;;;;;;5030869;28;20095;-84
2024/03/28 04:06:30;;;;;;;0.30;0.30;;;;;;;;;;5014267;28;20559;-85
2024/03/28 04:08:56;;;;;;;0.22;0.22;;;;;;;;;;4998395;28;20393;-84
2024/03/28 04:11:22;;;;;;;0.20;0.20;;;;;;;;;;5014293;28;20042;-84
2024/03/28 04:13:48;;;;;;;0.10;0.10;;;;;;;;;;5014031;28;20045;-84
2024/03/28 04:16:14;;;;;;;0.75;0.75;;;;;;;;;;5030392;28;20052;-85
2024/03/28 04:18:40;;;;;;;0.20;0.20;;;;;;;;;;4997789;28;20053;-85
2024/03/28 04:21:06;;;;;;;0.47;0.43;;;;;;;;;;5014448;28;20112;-85
2024/03/28 04:23:32;;;;;;;0.15;0.15;;;;;;;;;;5034334;28;20562;-85
2024/03/28 04:25:59;;;;;;;1.08;0.45;;;;;;;;;;5034241;28;20045;-84
2024/03/28 04:28:25;;;;;;;0.10;0.10;;;;;;;;;;5017890;28;20038;-85
2024/03/28 04:30:51;;;;;;;0.10;0.10;;;;;;;;;;5034141;28;20041;-85
2024/03/28 04:33:17;;;;;;;0.45;0.20;;;;;;;;;;5017748;28;20036;-84
2024/03/28 04:35:45;;;;;;;0.82;0.82;;;;;;;;;;5017691;28;20091;-84
2024/03/28 04:38:11;;;;;;;0.10;0.10;;;;;;;;;;5001664;28;20108;-85
2024/03/28 04:40:37;;;;;;;0.28;0.28;;;;;;;;;;5033986;28;20080;-85
2024/03/28 04:43:03;;;;;;;0.10;0.10;;;;;;;;;;5017536;28;20045;-85
2024/03/28 04:45:29;;;;;;;0.22;0.22;;;;;;;;;;5017335;28;20045;-85
2024/03/28 04:47:55;;;;;;;0.20;0.20;;;;;;;;;;5001189;28;20065;-84
2024/03/28 04:50:21;;;;;;;0.10;0.10;;;;;;;;;;5017408;28;20079;-85
2024/03/28 04:52:47;;;;;;;0.15;0.15;;;;;;;;;;5033783;28;20410;-85
2024/03/28 04:55:14;;;;;;;0.50;0.50;;;;;;;;;;5033713;28;20045;-84
2024/03/28 04:57:40;;;;;;;0.13;0.13;;;;;;;;;;5017322;28;20516;-85
2024/03/28 05:00:08;;;;;;;0.20;0.20;;;;;;;;;;5017302;28;20084;-84
2024/03/28 05:02:34;;;;;;;0.20;0.20;;;;;;;;;;5017119;28;20046;-85
2024/03/28 05:05:01;;;;;;;0.10;0.10;;;;;;;;;;5033623;28;20072;-85
2024/03/28 05:07:27;;;;;;;0.10;0.10;;;;;;;;;;5017290;28;20037;-84
2024/03/28 05:09:53;;;;;;;0.30;0.30;;;;;;;;;;5017246;28;20037;-84
2024/03/28 05:12:18;;;;;;;0.20;0.20;;;;;;;;;;5033483;28;20037;-84
2024/03/28 05:14:45;;;;;;;0.10;0.10;;;;;;;;;;5000638;28;20054;-84
2024/03/28 05:17:11;;;;;;;0.15;0.15;;;;;;;;;;5016973;28;20041;-84
2024/03/28 05:19:37;;;;;;;0.10;0.10;;;;;;;;;;5000614;28;20052;-84
2024/03/28 05:22:03;;;;;;;0.20;0.20;;;;;;;;;;5033152;28;20052;-84
2024/03/28 05:24:29;;;;;;;0.35;0.20;;;;;;;;;;5016842;28;20042;-84
2024/03/28 05:26:55;;;;;;;0.40;0.40;;;;;;;;;;5000509;28;20069;-84
2024/03/28 05:29:23;;;;;;;0.20;0.20;;;;;;;;;;5000442;28;20120;-84
2024/03/28 05:31:49;;;;;;;4.70;0.50;;;;;;;;;;5033025;28;20485;-85
2024/03/28 05:34:15;;;;;;;0.10;0.10;;;;;;;;;;5000239;28;20045;-85
2024/03/28 05:36:41;;;;;;;0.10;0.10;;;;;;;;;;5000306;28;20053;-85
2024/03/28 05:39:08;;;;;;;0.20;0.20;;;;;;;;;;5032905;28;20077;-85
2024/03/28 05:41:34;;;;;;;0.13;0.13;;;;;;;;;;5016208;28;20484;-85
2024/03/28 05:44:00;;;;;;;0.10;0.10;;;;;;;;;;5033005;28;20045;-84
2024/03/28 05:46:26;;;;;;;0.20;0.20;;;;;;;;;;5032814;28;20443;-84
2024/03/28 05:48:52;;;;;;;0.20;0.20;;;;;;;;;;5032578;28;20131;-85
2024/03/28 05:51:18;;;;;;;0.10;0.10;;;;;;;;;;5016359;28;20474;-84
2024/03/28 05:53:48;;;;;;;0.10;0.10;;;;;;;;;;5032747;28;20037;-84
2024/03/28 05:56:14;;;;;;;0.30;0.30;;;;;;;;;;5016116;28;20044;-84
2024/03/28 05:58:40;;;;;;;0.10;0.10;;;;;;;;;;5016094;28;20052;-84
2024/03/28 06:01:06;;;;;;;0.13;0.13;;;;;;;;;;5015973;28;20041;-85
2024/03/28 06:03:32;;;;;;;0.22;0.22;;;;;;;;;;5016556;28;20064;-85
2024/03/28 06:05:58;;;;;;;1.38;0.20;;;;;;;;;;5016131;28;20041;-84
2024/03/28 06:08:25;;;;;;;0.20;0.20;;;;;;;;;;5015907;28;20041;-85
2024/03/28 06:10:51;;;;;;;0.20;0.20;;;;;;;;;;5032359;28;20073;-85
2024/03/28 06:13:17;;;;;;;0.10;0.10;;;;;;;;;;5016159;28;20088;-86
2024/03/28 06:15:43;;;;;;;0.10;0.10;;;;;;;;;;4999738;28;20041;-86
2024/03/28 06:18:10;;;;;;;0.45;0.32;;;;;;;;;;5015905;28;20128;-84
2024/03/28 06:20:36;;;;;;;0.20;0.20;;;;;;;;;;5015790;28;20099;-84
2024/03/28 06:23:02;;;;;;;0.10;0.10;;;;;;;;;;4999773;28;20148;-84
2024/03/28 06:25:28;;;;;;;0.30;0.30;;;;;;;;;;5015785;28;20049;-83
2024/03/28 06:27:54;;;;;;;0.22;0.22;;;;;;;;;;5032080;28;20080;-82
2024/03/28 06:30:26;;;;;;;0.30;0.30;;;;;;;;;;5031963;28;20033;-83
2024/03/28 06:32:52;;;;;;;0.10;0.10;;;;;;;;;;5032349;28;20041;-82
2024/03/28 06:35:19;;;;;;;0.30;0.30;;;;;;;;;;5015858;28;20071;-83
2024/03/28 06:37:45;;;;;;;0.30;0.20;;;;;;;;;;5031960;28;20053;-83
2024/03/28 06:40:13;;;;;;;0.10;0.10;;;;;;;;;;5033196;28;20037;-83
2024/03/28 06:42:39;;;;;;;0.10;0.10;;;;;;;;;;5031824;28;20050;-83
2024/03/28 06:45:05;;;;;;;0.32;0.32;;;;;;;;;;5015068;28;20041;-83
2024/03/28 06:47:31;;;;;;;0.10;0.10;;;;;;;;;;5031694;28;20049;-83
2024/03/28 06:49:57;;;;;;;0.20;0.20;;;;;;;;;;5015335;28;20041;-83
2024/03/28 06:52:23;;;;;;;0.10;0.10;;;;;;;;;;5015268;28;20581;-83
2024/03/28 06:54:49;;;;;;;0.22;0.22;;;;;;;;;;5031909;28;20042;-83
2024/03/28 06:57:15;;;;;;;0.20;0.20;;;;;;;;;;5015103;28;20370;-83
2024/03/28 06:59:41;;;;;;;0.10;0.10;;;;;;;;;;5014991;28;20049;-83
2024/03/28 07:02:07;;;;;;;0.20;0.20;;;;;;;;;;5031322;28;20501;-83
2024/03/28 07:04:33;;;;;;;0.20;0.20;;;;;;;;;;4999014;28;20041;-83
2024/03/28 07:06:59;;;;;;;0.65;0.60;;;;;;;;;;5031409;28;20132;-84
2024/03/28 07:09:25;;;;;;;0.10;0.10;;;;;;;;;;5014900;28;20136;-83
2024/03/28 07:11:51;;;;;;;0.55;0.55;;;;;;;;;;5031477;28;20365;-84
2024/03/28 07:14:18;;;;;;;1.73;0.32;;;;;;;;;;5014969;28;20052;-83
2024/03/28 07:16:44;;;;;;;0.20;0.20;;;;;;;;;;5014837;28;20089;-83
2024/03/28 07:19:10;;;;;;;0.20;0.20;;;;;;;;;;5014801;28;20072;-83
2024/03/28 07:21:37;;;;;;;0.63;0.47;;;;;;;;;;5014690;28;20125;-84
2024/03/28 07:24:03;;;;;;;0.10;0.10;;;;;;;;;;5031473;28;20076;-84
2024/03/28 07:26:29;;;;;;;0.10;0.10;;;;;;;;;;5014718;28;20128;-86
2024/03/28 07:28:55;;;;;;;0.38;0.17;;;;;;;;;;4994146;28;20125;-83
2024/03/28 07:31:21;;;;;;;0.10;0.10;;;;;;;;;;5010936;28;20490;-84
2024/03/28 07:33:49;;;;;;;0.20;0.20;;;;;;;;;;4994744;28;20041;-84
2024/03/28 07:36:15;;;;;;;0.20;0.20;;;;;;;;;;4994634;28;20132;-83
2024/03/28 07:38:41;;;;;;;0.10;0.10;;;;;;;;;;5011174;28;20393;-83
2024/03/28 07:41:07;;;;;;;0.30;0.30;;;;;;;;;;4994852;28;20081;-82
2024/03/28 07:43:33;;;;;;;0.10;0.10;;;;;;;;;;4978776;28;20048;-83
2024/03/28 07:46:05;;;;;;;0.20;0.20;;;;;;;;;;5010939;28;20041;-83
2024/03/28 07:48:34;;;;;;;0.90;0.90;;;;;;;;;;5009908;28;20436;-82
2024/03/28 07:51:01;;;;;;;0.10;0.10;;;;;;;;;;5011094;28;20042;-82
2024/03/28 07:53:30;;;;;;;0.30;0.30;;;;;;;;;;4996636;28;20034;-83
2024/03/28 07:55:56;;;;;;;0.38;0.38;;;;;;;;;;5011085;28;20109;-83
2024/03/28 07:58:22;;;;;;;0.20;0.20;;;;;;;;;;5015137;28;20466;-84
2024/03/28 08:00:48;;;;;;;0.32;0.32;;;;;;;;;;4998507;28;20077;-83
2024/03/28 08:03:14;;;;;;;0.20;0.20;;;;;;;;;;4982663;28;20123;-83
2024/03/28 08:05:41;;;;;;;0.95;0.93;;;;;;;;;;5014963;28;20046;-84
2024/03/28 08:08:07;;;;;;;0.20;0.20;;;;;;;;;;5016119;28;20050;-83
2024/03/28 08:10:33;;;;;;;0.28;0.28;;;;;;;;;;4982771;28;20493;-86
2024/03/28 08:12:59;;;;;;;0.22;0.20;;;;;;;;;;5014845;28;20034;-85
2024/03/28 08:15:25;;;;;;;0.75;0.30;;;;;;;;;;5014794;28;20073;-85
2024/03/28 08:17:54;;;;;;;0.35;0.35;;;;;;;;;;5015099;28;20088;-83
2024/03/28 08:20:20;;;;;;;0.20;0.20;;;;;;;;;;5013852;28;20050;-83
2024/03/28 08:22:47;;;;;;;0.30;0.30;;;;;;;;;;5014863;28;20498;-86
2024/03/28 08:25:13;;;;;;;0.20;0.20;;;;;;;;;;5014925;28;20046;-84
2024/03/28 08:27:39;;;;;;;0.20;0.20;;;;;;;;;;5014388;28;20044;-84
2024/03/28 08:30:06;;;;;;;0.13;0.13;;;;;;;;;;4981873;28;20490;-84
2024/03/28 08:32:32;;;;;;;0.45;0.40;;;;;;;;;;5014731;28;20049;-85
2024/03/28 08:34:59;;;;;;;0.40;0.40;;;;;;;;;;5014636;28;20128;-85
2024/03/28 08:37:24;;;;;;;0.10;0.10;;;;;;;;;;4998048;28;20042;-84
2024/03/28 08:39:51;;;;;;;0.20;0.20;;;;;;;;;;5014163;28;20053;-85
2024/03/28 08:42:19;;;;;;;0.17;0.17;;;;;;;;;;5014488;28;20119;-85
2024/03/28 08:44:46;;;;;;;0.20;0.20;;;;;;;;;;5014551;28;20049;-85
2024/03/28 08:47:12;;;;;;;0.10;0.10;;;;;;;;;;5014176;28;20481;-85
2024/03/28 08:49:38;;;;;;;0.20;0.20;;;;;;;;;;5014425;28;20104;-85
2024/03/28 08:52:04;;;;;;;0.30;0.30;;;;;;;;;;5014367;28;20108;-85
2024/03/28 08:54:31;;;;;;;0.55;0.20;;;;;;;;;;5014221;28;20489;-84
2024/03/28 08:56:57;;;;;;;0.30;0.30;;;;;;;;;;5014159;28;20046;-85
2024/03/28 08:59:23;;;;;;;0.10;0.10;;;;;;;;;;5013996;28;20128;-86
2024/03/28 09:01:51;;;;;;;0.17;0.17;;;;;;;;;;5014545;28;20082;-90
2024/03/28 09:04:19;;;;;;;0.10;0.10;;;;;;;;;;5015032;28;20081;-88
2024/03/28 09:06:45;;;;;;;0.30;0.30;;;;;;;;;;4997428;28;20054;-87
2024/03/28 09:09:11;;;;;;;0.20;0.20;;;;;;;;;;5014059;28;20484;-88
2024/03/28 09:11:38;;;;;;;0.10;0.10;;;;;;;;;;4981641;28;20044;-88
2024/03/28 09:14:04;;;;;;;0.10;0.10;;;;;;;;;;4981665;28;20054;-87
2024/03/28 09:16:32;;;;;;;0.35;0.35;;;;;;;;;;4985357;28;20060;-84
2024/03/28 09:18:58;;;;;;;0.20;0.20;;;;;;;;;;5016935;28;20501;-86
2024/03/28 09:21:24;;;;;;;0.10;0.10;;;;;;;;;;5016793;28;20145;-85
2024/03/28 09:23:50;;;;;;;0.20;0.20;;;;;;;;;;5033307;28;20049;-85
2024/03/28 09:26:19;;;;;;;0.20;0.20;;;;;;;;;;5033251;28;20041;-86
2024/03/28 09:28:46;;;;;;;0.10;0.10;;;;;;;;;;5033478;28;20150;-86
2024/03/28 09:31:13;;;;;;;0.10;0.10;;;;;;;;;;5033361;28;20037;-86
2024/03/28 09:33:39;;;;;;;0.10;0.10;;;;;;;;;;5016937;28;20041;-87
2024/03/28 09:36:05;;;;;;;0.10;0.10;;;;;;;;;;5033157;28;20048;-85
2024/03/28 09:38:31;;;;;;;0.10;0.10;;;;;;;;;;5016524;28;20045;-86
2024/03/28 09:40:59;;;;;;;0.10;0.10;;;;;;;;;;5016450;28;20475;-86
2024/03/28 09:43:26;;;;;;;0.10;0.10;;;;;;;;;;5016624;28;20129;-86
2024/03/28 09:45:53;;;;;;;0.20;0.20;;;;;;;;;;5034355;28;20052;-86
2024/03/28 09:48:19;;;;;;;0.50;0.50;;;;;;;;;;5016210;28;20405;-86
2024/03/28 09:50:45;;;;;;;0.20;0.20;;;;;;;;;;5033152;28;20470;-86
2024/03/28 09:53:12;;;;;;;0.20;0.20;;;;;;;;;;4999995;28;20573;-86
2024/03/28 09:55:38;;;;;;;0.10;0.10;;;;;;;;;;5032770;28;20485;-87
2024/03/28 09:58:04;;;;;;;0.10;0.10;;;;;;;;;;5016316;28;20041;-87
2024/03/28 10:00:30;;;;;;;0.38;0.38;;;;;;;;;;5016643;28;20045;-87
2024/03/28 10:03:20;;;;;;;0.13;0.13;;;;;;;;;;5016575;28;20125;-88
2024/03/28 10:05:46;;;;;;;0.10;0.10;;;;;;;;;;5025526;28;20567;-88
2024/03/28 10:08:12;;;;;;;0.10;0.10;;;;;;;;;;5016059;28;20045;-86
2024/03/28 10:10:38;;;;;;;0.10;0.10;;;;;;;;;;5016417;28;20037;-87
2024/03/28 10:13:07;;;;;;;0.17;0.17;;;;;;;;;;5016498;28;20115;-85
2024/03/28 10:15:35;;;;;;;0.10;0.10;;;;;;;;;;5016000;28;20099;-85
2024/03/28 10:18:02;;;;;;;0.30;0.30;;;;;;;;;;4999713;28;20504;-85
2024/03/28 10:20:30;;;;;;;0.20;0.20;;;;;;;;;;5015080;28;20049;-84
2024/03/28 10:22:56;;;;;;;0.20;0.20;;;;;;;;;;5015603;28;20342;-84
2024/03/28 10:25:25;;;;;;;0.20;0.20;;;;;;;;;;5015606;28;20120;-85
2024/03/28 10:27:51;;;;;;;0.10;0.10;;;;;;;;;;5015673;28;20503;-85
2024/03/28 10:30:21;;;;;;;0.22;0.20;;;;;;;;;;5015669;28;20485;-85
2024/03/28 10:32:47;;;;;;;0.10;0.10;;;;;;;;;;5015973;28;20405;-86
2024/03/28 10:35:15;;;;;;;0.10;0.10;;;;;;;;;;4999178;28;20461;-85
2024/03/28 10:37:41;;;;;;;0.10;0.10;;;;;;;;;;5015744;28;20103;-84
2024/03/28 10:40:07;;;;;;;0.10;0.10;;;;;;;;;;5015403;28;20503;-88
2024/03/28 10:42:34;;;;;;;0.10;0.10;;;;;;;;;;5016147;28;20099;-86
2024/03/28 10:45:00;;;;;;;0.10;0.10;;;;;;;;;;5015383;28;20052;-84
2024/03/28 10:47:26;;;;;;;0.10;0.10;;;;;;;;;;5031601;28;20053;-85
2024/03/28 10:49:59;;;;;;;0.10;0.10;;;;;;;;;;4999420;28;20080;-85
2024/03/28 10:52:25;;;;;;;0.13;0.13;;;;;;;;;;5031969;28;20482;-86
2024/03/28 10:55:07;;;;;;;0.10;0.10;;;;;;;;;;5015208;28;20037;-86
2024/03/28 10:57:33;;;;;;;0.10;0.10;;;;;;;;;;4999116;28;20407;-87
2024/03/28 10:59:59;;;;;;;0.35;0.30;;;;;;;;;;5033090;28;20034;-87
2024/03/28 11:02:27;;;;;;;0.10;0.10;;;;;;;;;;5015338;28;20041;-86
2024/03/28 11:04:53;;;;;;;0.20;0.20;;;;;;;;;;5015091;28;20071;-86
2024/03/28 11:07:23;;;;;;;0.10;0.10;;;;;;;;;;5015453;28;20053;-89
2024/03/28 11:09:50;;;;;;;0.20;0.20;;;;;;;;;;5015010;28;20044;-87
2024/03/28 11:12:16;;;;;;;0.10;0.10;;;;;;;;;;5015349;28;20505;-87
2024/03/28 11:15:06;;;;;;;0.10;0.10;;;;;;;;;;4998593;28;20077;-87
2024/03/28 11:17:39;;;;;;;0.10;0.10;;;;;;;;;;5031830;28;20041;-86
2024/03/28 11:20:09;;;;;;;0.10;0.10;;;;;;;;;;5014906;28;20048;-86
2024/03/28 11:22:35;;;;;;;0.10;0.10;;;;;;;;;;5015679;28;20452;-85
2024/03/28 11:25:01;;;;;;;0.75;0.32;;;;;;;;;;4998318;28;20132;-86
2024/03/28 11:27:27;;;;;;;0.10;0.10;;;;;;;;;;4998433;28;20045;-86
2024/03/28 11:29:54;;;;;;;0.10;0.10;;;;;;;;;;5031227;28;20090;-87
2024/03/28 11:32:23;;;;;;;0.10;0.10;;;;;;;;;;5014103;28;20046;-86
2024/03/28 11:34:49;;;;;;;0.20;0.20;;;;;;;;;;4997878;28;20048;-86
2024/03/28 11:37:21;;;;;;;0.13;0.13;;;;;;;;;;4998213;28;20544;-87
2024/03/28 11:39:47;;;;;;;0.10;0.10;;;;;;;;;;5014353;28;20037;-86
2024/03/28 11:42:20;;;;;;;0.10;0.10;;;;;;;;;;4998088;28;20089;-88
2024/03/28 11:44:46;;;;;;;0.17;0.17;;;;;;;;;;4998169;28;20034;-90
2024/03/28 11:47:21;;;;;;;0.10;0.10;;;;;;;;;;5014700;28;20049;-87
2024/03/28 11:49:48;;;;;;;0.10;0.10;;;;;;;;;;5030924;28;20508;-87
2024/03/28 11:52:14;;;;;;;0.10;0.10;;;;;;;;;;5030838;28;20484;-87
2024/03/28 11:54:41;;;;;;;0.10;0.10;;;;;;;;;;4998175;28;20053;-88
2024/03/28 11:57:07;;;;;;;0.10;0.10;;;;;;;;;;4998402;28;20651;-88
2024/03/28 11:59:33;;;;;;;0.10;0.10;;;;;;;;;;5014636;28;20128;-88
2024/03/28 12:02:02;;;;;;;0.10;0.10;;;;;;;;;;5014409;28;20077;-88
2024/03/28 12:04:29;;;;;;;0.10;0.10;;;;;;;;;;5014403;28;20087;-88
2024/03/28 12:06:55;;;;;;;0.10;0.10;;;;;;;;;;4998006;28;20052;-87
2024/03/28 12:09:22;;;;;;;0.10;0.10;;;;;;;;;;4998325;28;20075;-88
2024/03/28 12:11:48;;;;;;;0.10;0.10;;;;;;;;;;5030845;28;20507;-88
2024/03/28 12:14:21;;;;;;;0.10;0.10;;;;;;;;;;5014539;28;20034;-88
2024/03/28 12:16:47;;;;;;;0.10;0.10;;;;;;;;;;5014732;28;20464;-88
2024/03/28 12:19:13;;;;;;;0.10;0.10;;;;;;;;;;5030783;28;20049;-88
2024/03/28 12:21:40;;;;;;;0.10;0.10;;;;;;;;;;4997894;28;20099;-87
2024/03/28 12:24:06;;;;;;;0.10;0.10;;;;;;;;;;4997826;28;20038;-86
2024/03/28 12:26:32;;;;;;;0.10;0.10;;;;;;;;;;5014209;28;20409;-87
2024/03/28 12:28:58;;;;;;;0.10;0.10;;;;;;;;;;5014119;28;20034;-87
2024/03/28 12:31:25;;;;;;;0.10;0.10;;;;;;;;;;4997674;28;20685;-88
2024/03/28 12:33:51;;;;;;;0.13;0.13;;;;;;;;;;4997654;28;20052;-88
2024/03/28 12:36:17;;;;;;;0.10;0.10;;;;;;;;;;5014822;28;20037;-89
2024/03/28 12:38:47;;;;;;;0.10;0.10;;;;;;;;;;5014486;28;20048;-89
2024/03/28 12:41:20;;;;;;;0.10;0.10;;;;;;;;;;4998071;28;20056;-87
2024/03/28 12:43:58;;;;;;;0.10;0.10;;;;;;;;;;5017501;28;20041;-88
2024/03/28 12:46:24;;;;;;;0.10;0.10;;;;;;;;;;5017639;28;20548;-86
2024/03/28 12:48:51;;;;;;;0.10;0.10;;;;;;;;;;5017391;28;20057;-87
2024/03/28 12:51:18;;;;;;;0.10;0.10;;;;;;;;;;5017667;28;20034;-86
2024/03/28 12:53:44;;;;;;;0.10;0.10;;;;;;;;;;5017685;28;20048;-87
2024/03/28 12:56:10;;;;;;;0.10;0.10;;;;;;;;;;5033846;28;20044;-86
2024/03/28 12:58:36;;;;;;;0.10;0.10;;;;;;;;;;5017358;28;20037;-86
2024/03/28 13:01:02;;;;;;;0.10;0.10;;;;;;;;;;5033643;28;20390;-86
2024/03/28 13:03:31;;;;;;;0.10;0.10;;;;;;;;;;5033711;28;20041;-87
2024/03/28 13:05:57;;;;;;;0.10;0.10;;;;;;;;;;5001104;28;20389;-86
2024/03/28 13:08:24;;;;;;;0.10;0.10;;;;;;;;;;5033700;28;20040;-87
2024/03/28 13:10:50;;;;;;;0.10;0.10;;;;;;;;;;5033643;28;20535;-86
2024/03/28 13:13:16;;;;;;;0.20;0.20;;;;;;;;;;5017298;28;20033;-85
2024/03/28 13:15:42;;;;;;;0.10;0.10;;;;;;;;;;5000837;28;20045;-85
2024/03/28 13:18:08;;;;;;;0.10;0.10;;;;;;;;;;5000820;28;20677;-86
2024/03/28 13:20:34;;;;;;;0.10;0.10;;;;;;;;;;5033599;28;20192;-86
2024/03/28 13:23:00;;;;;;;0.10;0.10;;;;;;;;;;5000662;28;20507;-85
2024/03/28 13:25:28;;;;;;;0.10;0.10;;;;;;;;;;5000605;28;20048;-86
2024/03/28 13:27:54;;;;;;;0.20;0.20;;;;;;;;;;5016988;28;20052;-86
2024/03/28 13:30:21;;;;;;;0.10;0.10;;;;;;;;;;5000539;28;20033;-86
2024/03/28 13:32:47;;;;;;;0.10;0.10;;;;;;;;;;5017329;28;20147;-86
2024/03/28 13:35:13;;;;;;;0.10;0.10;;;;;;;;;;5017247;28;20401;-88
2024/03/28 13:37:39;;;;;;;0.10;0.10;;;;;;;;;;5016727;28;20033;-87
2024/03/28 13:40:05;;;;;;;0.10;0.10;;;;;;;;;;5016582;28;20136;-86
2024/03/28 13:42:31;;;;;;;0.20;0.20;;;;;;;;;;5016562;28;20046;-88
2024/03/28 13:44:57;;;;;;;0.10;0.10;;;;;;;;;;5016791;28;20037;-88
2024/03/28 13:47:23;;;;;;;0.10;0.10;;;;;;;;;;5016403;28;20046;-87
2024/03/28 13:49:49;;;;;;;0.10;0.10;;;;;;;;;;5016609;28;20045;-88
2024/03/28 13:52:15;;;;;;;0.10;0.10;;;;;;;;;;5016344;28;20125;-87
2024/03/28 13:54:41;;;;;;;0.10;0.10;;;;;;;;;;5031618;28;20124;-87
2024/03/28 13:57:07;;;;;;;0.10;0.10;;;;;;;;;;5016342;28;20116;-86
2024/03/28 13:59:33;;;;;;;0.10;0.10;;;;;;;;;;5016170;28;20079;-91
2024/03/28 14:01:59;;;;;;;0.10;0.10;;;;;;;;;;5000031;28;20042;-84
2024/03/28 14:04:25;;;;;;;0.22;0.22;;;;;;;;;;5016096;28;20495;-87
2024/03/28 14:06:51;;;;;;;0.10;0.10;;;;;;;;;;5016549;28;20046;-88
2024/03/28 14:09:17;;;;;;;0.10;0.10;;;;;;;;;;5000009;28;20373;-89
2024/03/28 14:11:44;;;;;;;0.20;0.20;;;;;;;;;;5017322;28;20038;-91
2024/03/28 14:14:15;;;;;;;0.10;0.10;;;;;;;;;;5016258;28;20489;-86
2024/03/28 14:16:41;;;;;;;0.10;0.10;;;;;;;;;;5017100;28;20404;-86
2024/03/28 14:19:07;;;;;;;0.10;0.10;;;;;;;;;;5032414;28;20041;-86
2024/03/28 14:21:33;;;;;;;0.10;0.10;;;;;;;;;;5015783;28;20041;-86
2024/03/28 14:23:59;;;;;;;0.10;0.10;;;;;;;;;;5015834;28;20164;-86
2024/03/28 14:26:25;;;;;;;0.10;0.10;;;;;;;;;;4999417;28;20132;-86
2024/03/28 14:28:51;;;;;;;0.10;0.10;;;;;;;;;;5015845;28;20041;-86
2024/03/28 14:31:17;;;;;;;0.10;0.10;;;;;;;;;;4999298;28;20044;-86
2024/03/28 14:33:48;;;;;;;0.10;0.10;;;;;;;;;;4999370;28;20091;-86
2024/03/28 14:36:14;;;;;;;0.10;0.10;;;;;;;;;;5000063;28;20061;-86
2024/03/28 14:38:40;;;;;;;0.20;0.20;;;;;;;;;;5015607;28;20045;-87
2024/03/28 14:41:06;;;;;;;0.20;0.20;;;;;;;;;;5031747;28;20504;-87
2024/03/28 14:43:33;;;;;;;0.10;0.10;;;;;;;;;;5015638;28;20406;-87
2024/03/28 14:46:03;;;;;;;0.17;0.17;;;;;;;;;;4999073;28;20048;-86